sensor_id;sensor_type;location;lat;lon;timestamp;pressure;altitude;pressure_sealevel;temperature;humidity
62708;BME280;48769;51.624;5.886;2022-07-29T00:01:18;101462.81;;;18.73;62.46
62708;BME280;48769;51.624;5.886;2022-07-29T00:03:43;101462.56;;;18.76;62.61
62708;BME280;48769;51.624;5.886;2022-07-29T00:06:09;101461.59;;;18.77;61.92
62708;BME280;48769;51.624;5.886;2022-07-29T00:08:34;101458.19;;;18.75;61.90
62708;BME280;48769;51.624;5.886;2022-07-29T00:11:00;101459.91;;;18.76;61.68
62708;BME280;48769;51.624;5.886;2022-07-29T00:13:25;101458.50;;;18.71;62.10
62708;BME280;48769;51.624;5.886;2022-07-29T00:15:50;101463.09;;;18.68;62.34
62708;BME280;48769;51.624;5.886;2022-07-29T00:18:15;101453.38;;;18.67;62.40
62708;BME280;48769;51.624;5.886;2022-07-29T00:20:41;101458.84;;;18.66;62.42
62708;BME280;48769;51.624;5.886;2022-07-29T00:23:06;101460.56;;;18.67;63.05
62708;BME280;48769;51.624;5.886;2022-07-29T00:25:32;101468.81;;;18.64;65.35
62708;BME280;48769;51.624;5.886;2022-07-29T00:27:57;101464.66;;;18.60;65.22
62708;BME280;48769;51.624;5.886;2022-07-29T00:30:22;101476.59;;;18.56;66.98
62708;BME280;48769;51.624;5.886;2022-07-29T00:32:48;101480.44;;;18.52;68.27
62708;BME280;48769;51.624;5.886;2022-07-29T00:35:14;101484.53;;;18.44;68.94
62708;BME280;48769;51.624;5.886;2022-07-29T00:37:58;101485.97;;;18.37;69.63
62708;BME280;48769;51.624;5.886;2022-07-29T00:40:23;101485.34;;;18.34;71.56
62708;BME280;48769;51.624;5.886;2022-07-29T00:42:50;101487.50;;;18.29;71.95
62708;BME280;48769;51.624;5.886;2022-07-29T00:45:17;101487.94;;;18.22;73.16
62708;BME280;48769;51.624;5.886;2022-07-29T00:47:42;101494.84;;;18.14;75.11
62708;BME280;48769;51.624;5.886;2022-07-29T00:50:10;101495.72;;;18.02;77.21
62708;BME280;48769;51.624;5.886;2022-07-29T00:52:37;101499.06;;;17.92;78.56
62708;BME280;48769;51.624;5.886;2022-07-29T00:55:04;101508.91;;;17.79;80.77
62708;BME280;48769;51.624;5.886;2022-07-29T00:57:30;101504.13;;;17.59;82.73
62708;BME280;48769;51.624;5.886;2022-07-29T00:59:55;101505.41;;;17.40;84.27
62708;BME280;48769;51.624;5.886;2022-07-29T01:02:21;101504.75;;;17.24;85.38
62708;BME280;48769;51.624;5.886;2022-07-29T01:04:46;101508.19;;;17.26;85.32
62708;BME280;48769;51.624;5.886;2022-07-29T01:07:14;101492.88;;;17.02;86.00
62708;BME280;48769;51.624;5.886;2022-07-29T01:09:40;101485.06;;;16.99;87.00
62708;BME280;48769;51.624;5.886;2022-07-29T01:12:07;101481.88;;;16.94;86.88
62708;BME280;48769;51.624;5.886;2022-07-29T01:14:33;101484.41;;;16.96;88.25
62708;BME280;48769;51.624;5.886;2022-07-29T01:17:03;101491.06;;;16.90;91.05
62708;BME280;48769;51.624;5.886;2022-07-29T01:25:51;101527.41;;;16.51;99.59
62708;BME280;48769;51.624;5.886;2022-07-29T01:31:04;101524.03;;;16.62;99.75
62708;BME280;48769;51.624;5.886;2022-07-29T01:33:32;101537.94;;;16.53;99.63
62708;BME280;48769;51.624;5.886;2022-07-29T01:36:35;101546.28;;;16.48;99.78
62708;BME280;48769;51.624;5.886;2022-07-29T01:39:09;101564.09;;;16.48;98.46
62708;BME280;48769;51.624;5.886;2022-07-29T01:41:49;101559.53;;;16.35;97.90
62708;BME280;48769;51.624;5.886;2022-07-29T01:44:24;101554.22;;;16.35;98.79
62708;BME280;48769;51.624;5.886;2022-07-29T01:46:58;101553.34;;;16.35;99.90
62708;BME280;48769;51.624;5.886;2022-07-29T01:49:28;101546.66;;;16.42;100.00
62708;BME280;48769;51.624;5.886;2022-07-29T01:52:10;101554.28;;;16.34;100.00
62708;BME280;48769;51.624;5.886;2022-07-29T01:54:45;101536.91;;;16.28;100.00
62708;BME280;48769;51.624;5.886;2022-07-29T01:57:14;101524.03;;;16.35;100.00
62708;BME280;48769;51.624;5.886;2022-07-29T01:59:43;101516.56;;;16.40;100.00
62708;BME280;48769;51.624;5.886;2022-07-29T02:02:11;101517.88;;;16.47;100.00
62708;BME280;48769;51.624;5.886;2022-07-29T02:04:39;101511.78;;;16.45;100.00
62708;BME280;48769;51.624;5.886;2022-07-29T02:07:07;101495.34;;;16.39;100.00
62708;BME280;48769;51.624;5.886;2022-07-29T02:09:36;101477.94;;;16.33;100.00
62708;BME280;48769;51.624;5.886;2022-07-29T02:12:04;101456.47;;;16.22;100.00
62708;BME280;48769;51.624;5.886;2022-07-29T02:14:34;101448.22;;;16.12;100.00
62708;BME280;48769;51.624;5.886;2022-07-29T02:17:01;101447.13;;;16.15;100.00
62708;BME280;48769;51.624;5.886;2022-07-29T02:19:27;101456.66;;;16.19;100.00
62708;BME280;48769;51.624;5.886;2022-07-29T02:21:55;101454.72;;;16.21;100.00
62708;BME280;48769;51.624;5.886;2022-07-29T02:24:22;101444.63;;;16.26;100.00
62708;BME280;48769;51.624;5.886;2022-07-29T02:26:49;101437.22;;;16.17;100.00
62708;BME280;48769;51.624;5.886;2022-07-29T02:29:16;101421.59;;;15.98;100.00
62708;BME280;48769;51.624;5.886;2022-07-29T02:31:45;101420.09;;;15.94;100.00
62708;BME280;48769;51.624;5.886;2022-07-29T02:34:12;101412.59;;;15.86;100.00
62708;BME280;48769;51.624;5.886;2022-07-29T02:36:40;101402.59;;;15.89;100.00
62708;BME280;48769;51.624;5.886;2022-07-29T02:39:08;101414.28;;;15.87;100.00
62708;BME280;48769;51.624;5.886;2022-07-29T02:41:40;101412.47;;;15.87;100.00
62708;BME280;48769;51.624;5.886;2022-07-29T02:44:10;101421.31;;;15.88;100.00
62708;BME280;48769;51.624;5.886;2022-07-29T02:46:37;101411.25;;;15.93;100.00
62708;BME280;48769;51.624;5.886;2022-07-29T02:50:00;101402.09;;;15.97;100.00
62708;BME280;48769;51.624;5.886;2022-07-29T02:52:34;101390.84;;;15.92;100.00
62708;BME280;48769;51.624;5.886;2022-07-29T02:55:19;101390.50;;;15.84;100.00
62708;BME280;48769;51.624;5.886;2022-07-29T02:57:53;101386.44;;;15.78;100.00
62708;BME280;48769;51.624;5.886;2022-07-29T03:00:20;101388.56;;;15.73;100.00
62708;BME280;48769;51.624;5.886;2022-07-29T03:02:50;101387.97;;;15.68;100.00
62708;BME280;48769;51.624;5.886;2022-07-29T03:05:19;101397.94;;;15.64;100.00
62708;BME280;48769;51.624;5.886;2022-07-29T03:07:49;101396.53;;;15.59;100.00
62708;BME280;48769;51.624;5.886;2022-07-29T03:10:16;101391.31;;;15.57;100.00
62708;BME280;48769;51.624;5.886;2022-07-29T03:12:42;101386.38;;;15.51;100.00
62708;BME280;48769;51.624;5.886;2022-07-29T03:15:08;101377.34;;;15.54;100.00
62708;BME280;48769;51.624;5.886;2022-07-29T03:17:34;101374.75;;;15.52;100.00
62708;BME280;48769;51.624;5.886;2022-07-29T03:20:01;101374.22;;;15.47;100.00
62708;BME280;48769;51.624;5.886;2022-07-29T03:22:27;101388.44;;;15.46;100.00
62708;BME280;48769;51.624;5.886;2022-07-29T03:24:52;101387.41;;;15.49;100.00
62708;BME280;48769;51.624;5.886;2022-07-29T03:27:17;101402.34;;;15.51;100.00
62708;BME280;48769;51.624;5.886;2022-07-29T03:29:43;101405.28;;;15.61;100.00
62708;BME280;48769;51.624;5.886;2022-07-29T03:32:08;101403.88;;;15.70;100.00
62708;BME280;48769;51.624;5.886;2022-07-29T03:34:34;101408.25;;;15.71;100.00
62708;BME280;48769;51.624;5.886;2022-07-29T03:37:00;101416.47;;;15.66;100.00
62708;BME280;48769;51.624;5.886;2022-07-29T03:39:28;101417.19;;;15.70;100.00
62708;BME280;48769;51.624;5.886;2022-07-29T03:41:55;101418.78;;;15.72;100.00
62708;BME280;48769;51.624;5.886;2022-07-29T03:44:23;101410.78;;;15.72;100.00
62708;BME280;48769;51.624;5.886;2022-07-29T03:46:51;101402.72;;;15.74;100.00
62708;BME280;48769;51.624;5.886;2022-07-29T03:49:20;101413.19;;;15.77;100.00
62708;BME280;48769;51.624;5.886;2022-07-29T03:51:47;101411.44;;;15.76;100.00
62708;BME280;48769;51.624;5.886;2022-07-29T03:54:12;101423.66;;;15.80;100.00
62708;BME280;48769;51.624;5.886;2022-07-29T03:56:40;101420.00;;;15.81;100.00
62708;BME280;48769;51.624;5.886;2022-07-29T03:59:07;101418.13;;;15.83;100.00
62708;BME280;48769;51.624;5.886;2022-07-29T04:01:34;101419.63;;;15.87;100.00
62708;BME280;48769;51.624;5.886;2022-07-29T04:04:01;101419.81;;;15.84;100.00
62708;BME280;48769;51.624;5.886;2022-07-29T04:06:26;101423.44;;;15.83;100.00
62708;BME280;48769;51.624;5.886;2022-07-29T04:08:52;101427.03;;;15.82;100.00
62708;BME280;48769;51.624;5.886;2022-07-29T04:11:17;101416.38;;;15.82;100.00
62708;BME280;48769;51.624;5.886;2022-07-29T04:13:43;101419.63;;;15.87;100.00
62708;BME280;48769;51.624;5.886;2022-07-29T04:16:08;101425.16;;;15.84;100.00
62708;BME280;48769;51.624;5.886;2022-07-29T04:18:33;101424.38;;;15.82;100.00
62708;BME280;48769;51.624;5.886;2022-07-29T04:20:59;101432.38;;;15.82;100.00
62708;BME280;48769;51.624;5.886;2022-07-29T04:23:26;101423.53;;;15.81;100.00
62708;BME280;48769;51.624;5.886;2022-07-29T04:25:51;101435.03;;;15.82;100.00
62708;BME280;48769;51.624;5.886;2022-07-29T04:28:17;101435.50;;;15.88;100.00
62708;BME280;48769;51.624;5.886;2022-07-29T04:30:42;101432.09;;;15.86;100.00
62708;BME280;48769;51.624;5.886;2022-07-29T04:33:07;101432.09;;;15.86;100.00
62708;BME280;48769;51.624;5.886;2022-07-29T04:35:35;101444.97;;;15.80;100.00
62708;BME280;48769;51.624;5.886;2022-07-29T04:38:01;101442.38;;;15.78;100.00
62708;BME280;48769;51.624;5.886;2022-07-29T04:40:27;101447.50;;;15.81;100.00
62708;BME280;48769;51.624;5.886;2022-07-29T04:42:53;101440.75;;;15.76;100.00
62708;BME280;48769;51.624;5.886;2022-07-29T04:45:18;101439.06;;;15.75;100.00
62708;BME280;48769;51.624;5.886;2022-07-29T04:47:44;101426.13;;;15.69;100.00
62708;BME280;48769;51.624;5.886;2022-07-29T04:50:09;101429.56;;;15.71;100.00
62708;BME280;48769;51.624;5.886;2022-07-29T04:52:35;101433.91;;;15.72;100.00
62708;BME280;48769;51.624;5.886;2022-07-29T04:55:01;101449.16;;;15.70;100.00
62708;BME280;48769;51.624;5.886;2022-07-29T04:57:27;101435.13;;;15.66;100.00
62708;BME280;48769;51.624;5.886;2022-07-29T04:59:52;101436.28;;;15.62;100.00
62708;BME280;48769;51.624;5.886;2022-07-29T05:02:18;101436.94;;;15.65;100.00
62708;BME280;48769;51.624;5.886;2022-07-29T05:04:43;101444.69;;;15.70;100.00
62708;BME280;48769;51.624;5.886;2022-07-29T05:07:08;101438.41;;;15.71;100.00
62708;BME280;48769;51.624;5.886;2022-07-29T05:09:34;101444.75;;;15.69;100.00
62708;BME280;48769;51.624;5.886;2022-07-29T05:11:59;101440.22;;;15.71;100.00
62708;BME280;48769;51.624;5.886;2022-07-29T05:14:24;101448.94;;;15.73;100.00
62708;BME280;48769;51.624;5.886;2022-07-29T05:16:49;101453.22;;;15.75;100.00
62708;BME280;48769;51.624;5.886;2022-07-29T05:19:16;101468.28;;;15.76;100.00
62708;BME280;48769;51.624;5.886;2022-07-29T05:21:42;101469.13;;;15.77;100.00
62708;BME280;48769;51.624;5.886;2022-07-29T05:24:09;101460.94;;;15.80;100.00
62708;BME280;48769;51.624;5.886;2022-07-29T05:26:34;101453.88;;;15.79;100.00
62708;BME280;48769;51.624;5.886;2022-07-29T05:29:00;101460.94;;;15.80;100.00
62708;BME280;48769;51.624;5.886;2022-07-29T05:31:25;101462.63;;;15.81;100.00
62708;BME280;48769;51.624;5.886;2022-07-29T05:33:50;101461.47;;;15.85;100.00
62708;BME280;48769;51.624;5.886;2022-07-29T05:36:16;101458.16;;;15.81;100.00
62708;BME280;48769;51.624;5.886;2022-07-29T05:38:41;101458.16;;;15.81;100.00
62708;BME280;48769;51.624;5.886;2022-07-29T05:41:06;101452.00;;;15.81;100.00
62708;BME280;48769;51.624;5.886;2022-07-29T05:43:32;101456.28;;;15.83;100.00
62708;BME280;48769;51.624;5.886;2022-07-29T05:45:58;101450.09;;;15.83;100.00
62708;BME280;48769;51.624;5.886;2022-07-29T05:48:23;101436.19;;;15.78;100.00
62708;BME280;48769;51.624;5.886;2022-07-29T05:50:49;101450.09;;;15.83;100.00
62708;BME280;48769;51.624;5.886;2022-07-29T05:53:14;101453.50;;;15.85;100.00
62708;BME280;48769;51.624;5.886;2022-07-29T05:55:39;101459.41;;;15.90;100.00
62708;BME280;48769;51.624;5.886;2022-07-29T05:58:05;101460.56;;;15.86;100.00
62708;BME280;48769;51.624;5.886;2022-07-29T06:00:30;101463.41;;;15.83;100.00
62708;BME280;48769;51.624;5.886;2022-07-29T06:02:56;101458.94;;;15.83;100.00
62708;BME280;48769;51.624;5.886;2022-07-29T06:05:22;101460.56;;;15.86;100.00
62708;BME280;48769;51.624;5.886;2022-07-29T06:07:47;101461.22;;;15.89;100.00
62708;BME280;48769;51.624;5.886;2022-07-29T06:10:12;101464.59;;;15.92;100.00
62708;BME280;48769;51.624;5.886;2022-07-29T06:12:38;101464.72;;;15.90;100.00
62708;BME280;48769;51.624;5.886;2022-07-29T06:15:03;101462.25;;;15.87;100.00
62708;BME280;48769;51.624;5.886;2022-07-29T06:17:29;101466.63;;;15.88;100.00
62708;BME280;48769;51.624;5.886;2022-07-29T06:19:54;101463.00;;;15.89;100.00
62708;BME280;48769;51.624;5.886;2022-07-29T06:22:20;101472.59;;;15.92;100.00
62708;BME280;48769;51.624;5.886;2022-07-29T06:24:45;101472.53;;;15.93;100.00
62708;BME280;48769;51.624;5.886;2022-07-29T06:27:10;101474.41;;;15.91;100.00
62708;BME280;48769;51.624;5.886;2022-07-29T06:29:36;101473.38;;;15.94;100.00
62708;BME280;48769;51.624;5.886;2022-07-29T06:32:02;101472.78;;;15.88;100.00
62708;BME280;48769;51.624;5.886;2022-07-29T06:34:27;101468.13;;;15.92;100.00
62708;BME280;48769;51.624;5.886;2022-07-29T06:36:53;101470.06;;;15.90;100.00
62708;BME280;48769;51.624;5.886;2022-07-29T06:39:19;101475.19;;;15.93;100.00
62708;BME280;48769;51.624;5.886;2022-07-29T06:41:48;101479.34;;;15.97;100.00
62708;BME280;48769;51.624;5.886;2022-07-29T06:44:15;101465.06;;;15.98;100.00
62708;BME280;48769;51.624;5.886;2022-07-29T06:46:40;101465.91;;;15.99;100.00
62708;BME280;48769;51.624;5.886;2022-07-29T06:49:06;101460.59;;;15.99;100.00
62708;BME280;48769;51.624;5.886;2022-07-29T06:51:32;101465.06;;;15.98;100.00
62708;BME280;48769;51.624;5.886;2022-07-29T06:53:57;101471.06;;;16.02;100.00
62708;BME280;48769;51.624;5.886;2022-07-29T06:56:23;101482.59;;;16.02;100.00
62708;BME280;48769;51.624;5.886;2022-07-29T06:58:48;101475.25;;;16.06;100.00
62708;BME280;48769;51.624;5.886;2022-07-29T07:01:14;101473.84;;;16.00;100.00
62708;BME280;48769;51.624;5.886;2022-07-29T07:03:39;101466.81;;;15.99;100.00
62708;BME280;48769;51.624;5.886;2022-07-29T07:06:05;101469.47;;;15.99;100.00
62708;BME280;48769;51.624;5.886;2022-07-29T07:08:30;101459.75;;;15.98;100.00
62708;BME280;48769;51.624;5.886;2022-07-29T07:10:55;101466.03;;;15.97;100.00
62708;BME280;48769;51.624;5.886;2022-07-29T07:13:22;101472.34;;;15.96;100.00
62708;BME280;48769;51.624;5.886;2022-07-29T07:15:47;101467.94;;;15.95;100.00
62708;BME280;48769;51.624;5.886;2022-07-29T07:18:14;101473.25;;;15.95;100.00
62708;BME280;48769;51.624;5.886;2022-07-29T07:20:40;101478.59;;;15.95;100.00
62708;BME280;48769;51.624;5.886;2022-07-29T07:23:06;101481.91;;;15.99;100.00
62708;BME280;48769;51.624;5.886;2022-07-29T07:25:32;101483.66;;;16.00;100.00
62708;BME280;48769;51.624;5.886;2022-07-29T07:27:57;101490.03;;;15.97;100.00
62708;BME280;48769;51.624;5.886;2022-07-29T07:30:23;101492.56;;;15.99;100.00
62708;BME280;48769;51.624;5.886;2022-07-29T07:32:48;101513.81;;;16.00;100.00
62708;BME280;48769;51.624;5.886;2022-07-29T07:35:14;101519.13;;;16.00;100.00
62708;BME280;48769;51.624;5.886;2022-07-29T07:37:39;101520.84;;;16.01;100.00
62708;BME280;48769;51.624;5.886;2022-07-29T07:40:09;101510.00;;;16.04;100.00
62708;BME280;48769;51.624;5.886;2022-07-29T07:42:34;101512.47;;;16.07;100.00
62708;BME280;48769;51.624;5.886;2022-07-29T07:45:00;101507.91;;;16.09;100.00
62708;BME280;48769;51.624;5.886;2022-07-29T07:47:25;101507.03;;;16.09;100.00
62708;BME280;48769;51.624;5.886;2022-07-29T07:49:51;101500.09;;;16.06;100.00
62708;BME280;48769;51.624;5.886;2022-07-29T07:52:18;101493.06;;;16.05;100.00
62708;BME280;48769;51.624;5.886;2022-07-29T07:54:52;101491.72;;;16.12;100.00
62708;BME280;48769;51.624;5.886;2022-07-29T07:57:21;101503.69;;;16.20;100.00
62708;BME280;48769;51.624;5.886;2022-07-29T07:59:46;101503.94;;;16.29;100.00
62708;BME280;48769;51.624;5.886;2022-07-29T08:02:11;101506.94;;;16.38;100.00
62708;BME280;48769;51.624;5.886;2022-07-29T08:04:37;101499.41;;;16.44;100.00
62708;BME280;48769;51.624;5.886;2022-07-29T08:07:05;101499.44;;;16.57;100.00
62708;BME280;48769;51.624;5.886;2022-07-29T08:09:30;101494.28;;;16.68;100.00
62708;BME280;48769;51.624;5.886;2022-07-29T08:11:57;101493.16;;;16.85;100.00
62708;BME280;48769;51.624;5.886;2022-07-29T08:14:23;101498.53;;;16.98;100.00
62708;BME280;48769;51.624;5.886;2022-07-29T08:16:48;101492.44;;;17.09;100.00
62708;BME280;48769;51.624;5.886;2022-07-29T08:19:14;101499.41;;;17.24;100.00
62708;BME280;48769;51.624;5.886;2022-07-29T08:21:40;101500.91;;;17.28;99.77
62708;BME280;48769;51.624;5.886;2022-07-29T08:24:06;101512.66;;;17.38;98.37
62708;BME280;48769;51.624;5.886;2022-07-29T08:26:50;101520.56;;;17.52;97.03
62708;BME280;48769;51.624;5.886;2022-07-29T08:29:15;101523.13;;;17.67;96.81
62708;BME280;48769;51.624;5.886;2022-07-29T08:31:41;101518.00;;;17.77;95.75
62708;BME280;48769;51.624;5.886;2022-07-29T08:34:07;101522.06;;;17.82;94.98
62708;BME280;48769;51.624;5.886;2022-07-29T08:36:33;101531.88;;;18.07;93.80
62708;BME280;48769;51.624;5.886;2022-07-29T08:38:59;101537.16;;;18.57;91.14
62708;BME280;48769;51.624;5.886;2022-07-29T08:41:25;101537.19;;;18.68;90.13
62708;BME280;48769;51.624;5.886;2022-07-29T08:43:51;101534.78;;;18.89;87.26
62708;BME280;48769;51.624;5.886;2022-07-29T08:46:17;101527.59;;;19.01;85.68
62708;BME280;48769;51.624;5.886;2022-07-29T08:48:43;101519.06;;;19.31;84.42
62708;BME280;48769;51.624;5.886;2022-07-29T08:51:13;101524.56;;;19.41;82.81
62708;BME280;48769;51.624;5.886;2022-07-29T08:53:41;101513.50;;;19.56;80.62
62708;BME280;48769;51.624;5.886;2022-07-29T08:56:07;101523.50;;;19.66;81.89
62708;BME280;48769;51.624;5.886;2022-07-29T08:58:33;101527.78;;;19.91;82.21
62708;BME280;48769;51.624;5.886;2022-07-29T09:01:01;101520.44;;;20.15;81.26
62708;BME280;48769;51.624;5.886;2022-07-29T09:03:30;101515.88;;;20.27;81.86
62708;BME280;48769;51.624;5.886;2022-07-29T09:05:57;101514.28;;;20.36;80.30
62708;BME280;48769;51.624;5.886;2022-07-29T09:08:23;101519.50;;;20.48;81.05
62708;BME280;48769;51.624;5.886;2022-07-29T09:10:49;101512.50;;;20.68;81.20
62708;BME280;48769;51.624;5.886;2022-07-29T09:13:14;101513.16;;;20.82;78.95
62708;BME280;48769;51.624;5.886;2022-07-29T09:15:40;101506.69;;;20.84;78.07
62708;BME280;48769;51.624;5.886;2022-07-29T09:18:05;101508.97;;;20.89;76.38
62708;BME280;48769;51.624;5.886;2022-07-29T09:20:30;101515.81;;;20.93;77.60
62708;BME280;48769;51.624;5.886;2022-07-29T09:23:14;101510.63;;;20.80;76.70
62708;BME280;48769;51.624;5.886;2022-07-29T09:25:40;101514.44;;;20.66;77.60
62708;BME280;48769;51.624;5.886;2022-07-29T09:28:10;101512.28;;;20.60;78.34
62708;BME280;48769;51.624;5.886;2022-07-29T09:30:50;101518.53;;;20.82;78.71
62708;BME280;48769;51.624;5.886;2022-07-29T09:33:16;101514.09;;;20.92;78.98
62708;BME280;48769;51.624;5.886;2022-07-29T09:35:41;101515.53;;;20.96;77.80
62708;BME280;48769;51.624;5.886;2022-07-29T09:38:13;101511.16;;;20.95;74.72
62708;BME280;48769;51.624;5.886;2022-07-29T09:40:39;101515.19;;;20.89;75.38
62708;BME280;48769;51.624;5.886;2022-07-29T09:43:12;101509.13;;;21.08;74.99
62708;BME280;48769;51.624;5.886;2022-07-29T09:45:37;101514.25;;;20.90;74.04
62708;BME280;48769;51.624;5.886;2022-07-29T09:48:20;101512.72;;;20.97;76.16
62708;BME280;48769;51.624;5.886;2022-07-29T09:50:46;101513.72;;;21.17;76.92
62708;BME280;48769;51.624;5.886;2022-07-29T09:53:34;101514.63;;;21.28;77.26
62708;BME280;48769;51.624;5.886;2022-07-29T09:56:01;101513.72;;;21.38;75.55
62708;BME280;48769;51.624;5.886;2022-07-29T09:58:26;101514.06;;;21.45;74.42
62708;BME280;48769;51.624;5.886;2022-07-29T10:00:53;101513.38;;;21.53;75.17
62708;BME280;48769;51.624;5.886;2022-07-29T10:03:19;101512.69;;;21.60;73.39
62708;BME280;48769;51.624;5.886;2022-07-29T10:05:45;101513.13;;;21.56;75.32
62708;BME280;48769;51.624;5.886;2022-07-29T10:08:11;101515.94;;;21.54;73.04
62708;BME280;48769;51.624;5.886;2022-07-29T10:10:42;101514.22;;;21.53;72.72
62708;BME280;48769;51.624;5.886;2022-07-29T10:13:13;101512.59;;;21.62;73.54
62708;BME280;48769;51.624;5.886;2022-07-29T10:15:43;101512.16;;;21.66;73.42
62708;BME280;48769;51.624;5.886;2022-07-29T10:18:11;101504.94;;;21.67;73.99
62708;BME280;48769;51.624;5.886;2022-07-29T10:20:37;101509.81;;;21.83;74.80
62708;BME280;48769;51.624;5.886;2022-07-29T10:23:03;101508.72;;;21.85;72.76
62708;BME280;48769;51.624;5.886;2022-07-29T10:25:29;101508.97;;;21.82;72.26
62708;BME280;48769;51.624;5.886;2022-07-29T10:27:55;101508.78;;;21.74;71.40
62708;BME280;48769;51.624;5.886;2022-07-29T10:30:21;101498.19;;;21.73;71.06
62708;BME280;48769;51.624;5.886;2022-07-29T10:36:11;101498.56;;;21.99;72.46
62708;BME280;48769;51.624;5.886;2022-07-29T10:38:48;101495.47;;;22.13;70.93
62708;BME280;48769;51.624;5.886;2022-07-29T10:42:21;101504.41;;;22.13;75.91
62708;BME280;48769;51.624;5.886;2022-07-29T10:44:22;101492.41;;;22.17;71.64
62708;BME280;48769;51.624;5.886;2022-07-29T10:46:49;101492.34;;;22.08;71.39
62708;BME280;48769;51.624;5.886;2022-07-29T10:49:20;101491.75;;;21.94;70.61
62708;BME280;48769;51.624;5.886;2022-07-29T10:54:18;101496.63;;;22.10;71.67
62708;BME280;48769;51.624;5.886;2022-07-29T10:56:43;101507.94;;;22.14;74.40
62708;BME280;48769;51.624;5.886;2022-07-29T11:01:47;101492.44;;;22.47;70.38
62708;BME280;48769;51.624;5.886;2022-07-29T11:04:15;101503.50;;;22.53;70.81
62708;BME280;48769;51.624;5.886;2022-07-29T11:07:06;101495.00;;;22.58;69.94
62708;BME280;48769;51.624;5.886;2022-07-29T11:09:33;101502.09;;;22.69;70.61
62708;BME280;48769;51.624;5.886;2022-07-29T11:11:58;101498.69;;;22.76;68.85
62708;BME280;48769;51.624;5.886;2022-07-29T11:17:18;101493.41;;;22.84;65.50
62708;BME280;48769;51.624;5.886;2022-07-29T11:19:43;101478.09;;;23.24;64.17
62708;BME280;48769;51.624;5.886;2022-07-29T11:22:10;101486.38;;;23.50;63.83
62708;BME280;48769;51.624;5.886;2022-07-29T11:24:36;101490.31;;;23.55;64.73
62708;BME280;48769;51.624;5.886;2022-07-29T11:27:20;101491.31;;;23.54;66.50
62708;BME280;48769;51.624;5.886;2022-07-29T11:29:57;101494.22;;;23.43;66.08
62708;BME280;48769;51.624;5.886;2022-07-29T11:32:37;101488.09;;;23.41;66.51
62708;BME280;48769;51.624;5.886;2022-07-29T11:35:20;101481.59;;;23.34;64.59
62708;BME280;48769;51.624;5.886;2022-07-29T11:41:25;101476.06;;;23.36;63.98
62708;BME280;48769;51.624;5.886;2022-07-29T11:49:08;101474.53;;;23.61;64.91
62708;BME280;48769;51.624;5.886;2022-07-29T11:51:38;101478.63;;;23.65;65.32
62708;BME280;48769;51.624;5.886;2022-07-29T11:54:04;101475.81;;;23.66;65.82
62708;BME280;48769;51.624;5.886;2022-07-29T11:56:34;101472.44;;;23.54;63.54
62708;BME280;48769;51.624;5.886;2022-07-29T11:59:05;101471.56;;;23.64;65.48
62708;BME280;48769;51.624;5.886;2022-07-29T12:01:31;101480.31;;;23.75;65.95
62708;BME280;48769;51.624;5.886;2022-07-29T12:04:04;101474.66;;;23.69;62.84
62708;BME280;48769;51.624;5.886;2022-07-29T12:06:32;101475.50;;;23.79;62.62
62708;BME280;48769;51.624;5.886;2022-07-29T12:08:58;101466.78;;;23.85;62.91
62708;BME280;48769;51.624;5.886;2022-07-29T12:11:23;101469.16;;;23.88;63.18
62708;BME280;48769;51.624;5.886;2022-07-29T12:13:50;101479.31;;;24.04;63.59
62708;BME280;48769;51.624;5.886;2022-07-29T12:16:16;101472.94;;;24.23;65.05
62708;BME280;48769;51.624;5.886;2022-07-29T12:18:42;101461.75;;;24.36;62.91
62708;BME280;48769;51.624;5.886;2022-07-29T12:21:07;101463.88;;;24.42;61.47
62708;BME280;48769;51.624;5.886;2022-07-29T12:23:35;101462.59;;;24.36;62.10
62708;BME280;48769;51.624;5.886;2022-07-29T12:26:04;101456.91;;;24.39;61.05
62708;BME280;48769;51.624;5.886;2022-07-29T12:28:37;101467.44;;;24.42;63.32
62708;BME280;48769;51.624;5.886;2022-07-29T12:31:03;101475.97;;;24.38;62.36
62708;BME280;48769;51.624;5.886;2022-07-29T12:33:29;101465.75;;;24.41;60.96
62708;BME280;48769;51.624;5.886;2022-07-29T12:36:00;101455.00;;;24.49;61.18
62708;BME280;48769;51.624;5.886;2022-07-29T12:38:26;101462.88;;;24.61;59.79
62708;BME280;48769;51.624;5.886;2022-07-29T12:40:53;101466.66;;;24.68;59.17
62708;BME280;48769;51.624;5.886;2022-07-29T12:43:21;101450.22;;;24.61;56.42
62708;BME280;48769;51.624;5.886;2022-07-29T12:45:49;101453.19;;;24.76;56.90
62708;BME280;48769;51.624;5.886;2022-07-29T12:48:16;101449.28;;;24.70;55.49
62708;BME280;48769;51.624;5.886;2022-07-29T12:50:56;101463.75;;;24.87;57.70
62708;BME280;48769;51.624;5.886;2022-07-29T12:53:23;101454.19;;;24.93;56.84
62708;BME280;48769;51.624;5.886;2022-07-29T12:55:51;101451.00;;;25.15;56.54
62708;BME280;48769;51.624;5.886;2022-07-29T12:58:38;101446.47;;;25.24;55.92
62708;BME280;48769;51.624;5.886;2022-07-29T13:01:17;101443.13;;;25.30;54.71
62708;BME280;48769;51.624;5.886;2022-07-29T13:03:46;101443.63;;;25.34;53.98
62708;BME280;48769;51.624;5.886;2022-07-29T13:06:39;101441.00;;;25.50;53.46
62708;BME280;48769;51.624;5.886;2022-07-29T13:09:15;101439.91;;;25.61;53.81
62708;BME280;48769;51.624;5.886;2022-07-29T13:11:43;101442.59;;;25.61;53.80
62708;BME280;48769;51.624;5.886;2022-07-29T13:14:11;101444.69;;;25.75;53.37
62708;BME280;48769;51.624;5.886;2022-07-29T13:17:03;101436.88;;;25.72;51.01
62708;BME280;48769;51.624;5.886;2022-07-29T13:19:34;101431.03;;;25.51;49.97